Time;durP1;ratioP1;P1;durP2;ratioP2;P2;SDS_P1;SDS_P2;PMS_P1;PMS_P2;Temp;Humidity;BMP_temperature;BMP_pressure;BME280_temperature;BME280_humidity;BME280_pressure;Samples;Min_cycle;Max_cycle;Signal;HPM_P1;HPM_P2
2023/10/31 00:02:00;;;;;;;8.73;5.10;;;;;;;;;;2609758;54;20454;-78
2023/10/31 00:04:26;;;;;;;6.53;5.57;;;;;;;;;;2608303;54;20459;-80
2023/10/31 00:06:52;;;;;;;4.87;3.80;;;;;;;;;;2608984;54;20404;-79
2023/10/31 00:09:18;;;;;;;7.87;5.70;;;;;;;;;;2610797;54;20453;-77
2023/10/31 00:11:44;;;;;;;6.37;4.93;;;;;;;;;;2611541;54;20395;-79
2023/10/31 00:14:13;;;;;;;9.87;7.23;;;;;;;;;;2612210;54;20424;-77
2023/10/31 00:16:39;;;;;;;7.57;6.30;;;;;;;;;;2612593;54;20926;-75
2023/10/31 00:19:05;;;;;;;6.00;5.40;;;;;;;;;;2609538;51;20417;-75
2023/10/31 00:21:31;;;;;;;6.43;3.97;;;;;;;;;;2609495;54;20438;-74
2023/10/31 00:23:57;;;;;;;5.70;4.80;;;;;;;;;;2608753;54;20423;-79
2023/10/31 00:26:23;;;;;;;7.90;6.47;;;;;;;;;;2610325;54;20402;-76
2023/10/31 00:28:49;;;;;;;6.10;4.50;;;;;;;;;;2609105;54;20399;-75
2023/10/31 00:31:15;;;;;;;4.23;3.10;;;;;;;;;;2609354;39;20836;-77
2023/10/31 00:33:41;;;;;;;4.93;3.23;;;;;;;;;;2609333;39;20786;-78
2023/10/31 00:36:07;;;;;;;5.80;3.93;;;;;;;;;;2609792;54;20434;-76
2023/10/31 00:38:34;;;;;;;3.90;3.20;;;;;;;;;;2608815;54;20410;-75
2023/10/31 00:41:00;;;;;;;4.00;3.60;;;;;;;;;;2609517;54;20470;-75
2023/10/31 00:43:26;;;;;;;5.30;3.83;;;;;;;;;;2609404;54;20473;-73
2023/10/31 00:45:53;;;;;;;3.53;2.80;;;;;;;;;;2609331;54;20378;-76
2023/10/31 00:48:20;;;;;;;3.47;2.50;;;;;;;;;;2607285;47;20431;-75
2023/10/31 00:50:46;;;;;;;3.20;2.83;;;;;;;;;;2609731;54;21041;-76
2023/10/31 00:53:14;;;;;;;2.60;2.30;;;;;;;;;;2609103;54;20419;-75
2023/10/31 00:55:40;;;;;;;6.67;3.97;;;;;;;;;;2609203;54;20408;-77
2023/10/31 00:58:06;;;;;;;8.30;3.03;;;;;;;;;;2608037;54;20431;-77
2023/10/31 01:00:34;;;;;;;4.77;3.33;;;;;;;;;;2609721;54;20734;-76
2023/10/31 01:03:00;;;;;;;4.03;3.47;;;;;;;;;;2610126;54;20503;-75
2023/10/31 01:05:29;;;;;;;4.63;3.30;;;;;;;;;;2609258;54;20408;-76
2023/10/31 01:07:55;;;;;;;5.00;4.03;;;;;;;;;;2608738;51;20408;-75
2023/10/31 01:10:22;;;;;;;3.70;2.13;;;;;;;;;;2609886;46;20438;-76
2023/10/31 01:12:48;;;;;;;5.57;3.70;;;;;;;;;;2609857;54;20966;-75
2023/10/31 01:15:14;;;;;;;3.80;2.67;;;;;;;;;;2608454;47;20431;-76
2023/10/31 01:17:40;;;;;;;3.43;2.50;;;;;;;;;;2608870;54;20551;-75
2023/10/31 01:20:12;;;;;;;3.77;2.20;;;;;;;;;;2612006;54;20505;-76
2023/10/31 01:22:38;;;;;;;4.47;3.20;;;;;;;;;;2611737;54;20628;-75
2023/10/31 01:25:06;;;;;;;2.90;2.00;;;;;;;;;;2611373;46;20457;-78
2023/10/31 01:27:33;;;;;;;4.87;2.43;;;;;;;;;;2612925;39;20830;-78
2023/10/31 01:29:59;;;;;;;2.47;1.83;;;;;;;;;;2613777;47;20457;-79
2023/10/31 01:32:26;;;;;;;4.20;2.60;;;;;;;;;;2613994;54;20987;-77
2023/10/31 01:34:52;;;;;;;2.93;2.10;;;;;;;;;;2613704;47;20535;-78
2023/10/31 01:37:20;;;;;;;3.47;2.20;;;;;;;;;;2613847;47;20416;-78
2023/10/31 01:39:46;;;;;;;2.60;2.13;;;;;;;;;;2613645;54;20474;-77
2023/10/31 01:42:15;;;;;;;2.83;2.00;;;;;;;;;;2613126;46;20562;-77
2023/10/31 01:44:42;;;;;;;3.60;2.30;;;;;;;;;;2614139;47;20423;-76
2023/10/31 01:47:09;;;;;;;2.50;2.30;;;;;;;;;;2614319;54;20446;-77
2023/10/31 01:49:37;;;;;;;4.63;2.80;;;;;;;;;;2613705;46;20442;-77
2023/10/31 01:52:06;;;;;;;7.20;3.63;;;;;;;;;;2613476;54;20431;-77
2023/10/31 01:54:36;;;;;;;6.10;3.90;;;;;;;;;;2613524;47;20424;-76
2023/10/31 01:57:04;;;;;;;3.87;3.47;;;;;;;;;;2613946;54;20431;-77
2023/10/31 01:59:31;;;;;;;5.60;4.90;;;;;;;;;;2614566;54;20509;-77
2023/10/31 02:01:57;;;;;;;6.47;4.47;;;;;;;;;;2612757;54;20403;-77
2023/10/31 02:04:26;;;;;;;8.63;6.07;;;;;;;;;;2611718;54;20534;-77
2023/10/31 02:06:53;;;;;;;5.50;4.90;;;;;;;;;;2611452;47;20842;-76
2023/10/31 02:09:24;;;;;;;6.27;5.00;;;;;;;;;;2611375;39;20717;-77
2023/10/31 02:11:50;;;;;;;8.07;5.20;;;;;;;;;;2611593;39;20463;-77
2023/10/31 02:14:16;;;;;;;9.37;7.10;;;;;;;;;;2611856;39;20821;-77
2023/10/31 02:16:42;;;;;;;7.53;6.73;;;;;;;;;;2611443;54;20581;-76
2023/10/31 02:19:10;;;;;;;10.10;6.57;;;;;;;;;;2612502;39;20845;-77
2023/10/31 02:21:39;;;;;;;9.53;6.87;;;;;;;;;;2611582;54;20445;-77
2023/10/31 02:24:06;;;;;;;10.70;6.77;;;;;;;;;;2611716;54;20442;-78
2023/10/31 02:26:33;;;;;;;6.27;5.57;;;;;;;;;;2612938;54;20956;-78
2023/10/31 02:28:59;;;;;;;10.30;6.17;;;;;;;;;;2612822;54;20407;-78
2023/10/31 02:31:27;;;;;;;7.70;6.87;;;;;;;;;;2611275;54;20425;-77
2023/10/31 02:33:54;;;;;;;7.57;6.80;;;;;;;;;;2612270;54;20522;-78
2023/10/31 02:36:20;;;;;;;10.93;7.83;;;;;;;;;;2609652;54;20431;-77
2023/10/31 02:38:47;;;;;;;8.87;5.70;;;;;;;;;;2608309;54;21000;-77
2023/10/31 02:41:13;;;;;;;8.37;6.33;;;;;;;;;;2609081;54;20415;-77
2023/10/31 02:43:39;;;;;;;9.40;6.67;;;;;;;;;;2608622;54;20459;-76
2023/10/31 02:46:05;;;;;;;9.40;7.33;;;;;;;;;;2608835;54;20546;-76
2023/10/31 02:48:37;;;;;;;8.13;6.00;;;;;;;;;;2609474;54;20492;-76
2023/10/31 02:51:04;;;;;;;7.87;7.07;;;;;;;;;;2608250;47;20416;-76
2023/10/31 02:53:30;;;;;;;8.13;5.20;;;;;;;;;;2608981;54;20427;-77
2023/10/31 02:55:56;;;;;;;8.07;7.17;;;;;;;;;;2608386;46;20525;-75
2023/10/31 02:58:22;;;;;;;8.97;5.67;;;;;;;;;;2607793;54;20989;-76
2023/10/31 03:00:48;;;;;;;10.10;7.10;;;;;;;;;;2608450;54;20458;-76
2023/10/31 03:03:14;;;;;;;10.30;7.60;;;;;;;;;;2608855;54;20433;-76
2023/10/31 03:05:41;;;;;;;11.00;7.30;;;;;;;;;;2609522;54;20514;-76
2023/10/31 03:08:10;;;;;;;10.47;7.37;;;;;;;;;;2609303;54;21088;-76
2023/10/31 03:10:36;;;;;;;12.23;8.53;;;;;;;;;;2608889;54;20411;-76
2023/10/31 03:13:02;;;;;;;14.70;10.23;;;;;;;;;;2609338;54;20431;-77
2023/10/31 03:15:28;;;;;;;13.90;10.50;;;;;;;;;;2610197;54;21323;-77
2023/10/31 03:17:54;;;;;;;14.10;9.97;;;;;;;;;;2609840;54;20430;-76
2023/10/31 03:20:20;;;;;;;14.43;9.13;;;;;;;;;;2608899;47;20435;-75
2023/10/31 03:22:46;;;;;;;16.10;11.87;;;;;;;;;;2609440;54;20847;-76
2023/10/31 03:25:12;;;;;;;11.83;8.77;;;;;;;;;;2608725;54;20442;-76
2023/10/31 03:27:38;;;;;;;18.10;10.93;;;;;;;;;;2609303;54;20414;-76
2023/10/31 03:30:05;;;;;;;21.40;11.13;;;;;;;;;;2610641;54;20431;-76
2023/10/31 03:32:31;;;;;;;14.90;10.20;;;;;;;;;;2611920;54;20447;-76
2023/10/31 03:34:57;;;;;;;17.53;10.97;;;;;;;;;;2610587;54;20412;-75
2023/10/31 03:37:23;;;;;;;16.57;11.93;;;;;;;;;;2608332;54;20423;-76
2023/10/31 03:39:49;;;;;;;17.83;12.30;;;;;;;;;;2607319;54;20435;-76
2023/10/31 03:42:16;;;;;;;21.80;11.93;;;;;;;;;;2609233;54;20581;-77
2023/10/31 03:44:42;;;;;;;12.33;9.27;;;;;;;;;;2608983;54;20423;-75
2023/10/31 03:47:08;;;;;;;14.43;11.03;;;;;;;;;;2609543;54;20487;-75
2023/10/31 03:49:34;;;;;;;19.90;13.70;;;;;;;;;;2608497;47;20540;-75
2023/10/31 03:52:00;;;;;;;15.13;10.40;;;;;;;;;;2609110;54;20994;-75
2023/10/31 03:54:26;;;;;;;15.47;8.13;;;;;;;;;;2607982;47;20403;-76
2023/10/31 03:56:52;;;;;;;12.83;8.20;;;;;;;;;;2608615;46;20435;-75
2023/10/31 03:59:18;;;;;;;10.47;7.77;;;;;;;;;;2608265;54;20504;-75
2023/10/31 04:01:44;;;;;;;9.33;4.83;;;;;;;;;;2609613;54;20434;-75
2023/10/31 04:04:11;;;;;;;13.67;7.17;;;;;;;;;;2609308;47;20423;-76
2023/10/31 04:06:40;;;;;;;11.10;7.67;;;;;;;;;;2608959;54;20993;-76
2023/10/31 04:09:06;;;;;;;12.30;7.30;;;;;;;;;;2609922;39;21003;-75
2023/10/31 04:11:32;;;;;;;9.63;5.97;;;;;;;;;;2609939;39;20796;-75
2023/10/31 04:14:00;;;;;;;12.60;7.77;;;;;;;;;;2609496;54;21346;-76
2023/10/31 04:16:26;;;;;;;11.37;6.80;;;;;;;;;;2610077;39;20842;-75
2023/10/31 04:18:52;;;;;;;12.70;8.87;;;;;;;;;;2608830;47;20419;-76
2023/10/31 04:21:18;;;;;;;12.13;6.87;;;;;;;;;;2608365;47;21346;-76
2023/10/31 04:23:44;;;;;;;15.57;8.57;;;;;;;;;;2609424;54;20518;-76
2023/10/31 04:26:10;;;;;;;11.37;7.87;;;;;;;;;;2609778;54;20442;-76
2023/10/31 04:28:36;;;;;;;14.33;8.77;;;;;;;;;;2608568;47;20375;-76
2023/10/31 04:31:02;;;;;;;12.77;7.17;;;;;;;;;;2609973;39;20936;-77
2023/10/31 04:33:28;;;;;;;11.27;6.70;;;;;;;;;;2609053;54;20420;-76
2023/10/31 04:35:54;;;;;;;10.03;6.00;;;;;;;;;;2609511;39;20924;-76
2023/10/31 04:38:20;;;;;;;9.97;6.60;;;;;;;;;;2607404;54;21336;-76
2023/10/31 04:40:46;;;;;;;13.13;5.93;;;;;;;;;;2608764;54;20404;-75
2023/10/31 04:43:12;;;;;;;9.63;6.30;;;;;;;;;;2608308;47;20477;-75
2023/10/31 04:45:39;;;;;;;11.40;6.27;;;;;;;;;;2610233;54;20406;-76
2023/10/31 04:48:05;;;;;;;10.50;6.37;;;;;;;;;;2609394;54;20407;-75
2023/10/31 04:50:31;;;;;;;9.23;6.50;;;;;;;;;;2608747;54;20419;-75
2023/10/31 04:52:57;;;;;;;10.67;7.03;;;;;;;;;;2609281;54;20523;-75
2023/10/31 04:55:23;;;;;;;8.90;6.33;;;;;;;;;;2608821;54;20446;-75
2023/10/31 04:57:49;;;;;;;14.13;9.30;;;;;;;;;;2609492;54;20408;-75
2023/10/31 05:00:15;;;;;;;11.70;7.77;;;;;;;;;;2609695;54;20426;-75
2023/10/31 05:02:41;;;;;;;14.23;9.53;;;;;;;;;;2609256;47;20466;-76
2023/10/31 05:05:08;;;;;;;10.30;7.43;;;;;;;;;;2608513;54;21979;-76
2023/10/31 05:07:34;;;;;;;13.23;9.23;;;;;;;;;;2607665;54;20434;-76
2023/10/31 05:10:00;;;;;;;13.57;8.70;;;;;;;;;;2608881;54;20518;-76
2023/10/31 05:12:26;;;;;;;14.67;9.53;;;;;;;;;;2609373;54;20375;-76
2023/10/31 05:14:52;;;;;;;9.70;7.40;;;;;;;;;;2608359;54;20996;-76
2023/10/31 05:17:18;;;;;;;7.03;4.70;;;;;;;;;;2608642;54;20468;-74
2023/10/31 05:19:44;;;;;;;9.10;6.77;;;;;;;;;;2608310;54;20428;-75
2023/10/31 05:22:10;;;;;;;13.93;8.80;;;;;;;;;;2608964;54;20486;-77
2023/10/31 05:24:36;;;;;;;8.47;6.00;;;;;;;;;;2607873;39;21706;-76
2023/10/31 05:27:02;;;;;;;12.07;8.40;;;;;;;;;;2608360;47;20431;-75
2023/10/31 05:29:30;;;;;;;12.57;8.93;;;;;;;;;;2608538;47;20436;-77
2023/10/31 05:31:56;;;;;;;12.60;8.77;;;;;;;;;;2608811;54;20423;-75
2023/10/31 05:34:22;;;;;;;16.27;10.40;;;;;;;;;;2609106;47;20414;-74
2023/10/31 05:36:48;;;;;;;11.90;7.43;;;;;;;;;;2607897;54;20426;-74
2023/10/31 05:39:15;;;;;;;13.83;9.43;;;;;;;;;;2609688;54;20415;-75
2023/10/31 05:41:41;;;;;;;20.13;9.87;;;;;;;;;;2606692;54;20453;-74
2023/10/31 05:44:07;;;;;;;19.20;11.23;;;;;;;;;;2608574;54;20451;-74
2023/10/31 05:46:39;;;;;;;14.37;9.37;;;;;;;;;;2608361;46;20403;-73
2023/10/31 05:49:06;;;;;;;16.20;10.60;;;;;;;;;;2608514;54;20412;-74
2023/10/31 05:51:33;;;;;;;17.20;9.87;;;;;;;;;;2607584;54;20401;-74
2023/10/31 05:53:59;;;;;;;13.07;9.73;;;;;;;;;;2608322;54;20422;-75
2023/10/31 05:56:25;;;;;;;17.07;10.80;;;;;;;;;;2608751;39;20741;-73
2023/10/31 05:58:51;;;;;;;19.00;10.90;;;;;;;;;;2608387;54;20807;-75
2023/10/31 06:01:17;;;;;;;20.23;12.10;;;;;;;;;;2608352;39;20878;-75
2023/10/31 06:03:44;;;;;;;22.17;12.13;;;;;;;;;;2607761;47;20426;-75
2023/10/31 06:06:11;;;;;;;25.07;11.47;;;;;;;;;;2609801;54;20423;-75
2023/10/31 06:08:37;;;;;;;16.27;9.97;;;;;;;;;;2606213;54;20402;-76
2023/10/31 06:11:04;;;;;;;14.50;9.80;;;;;;;;;;2609102;54;21020;-75
2023/10/31 06:13:31;;;;;;;23.20;12.80;;;;;;;;;;2608547;54;20408;-77
2023/10/31 06:15:59;;;;;;;20.73;11.80;;;;;;;;;;2612318;54;20403;-76
2023/10/31 06:18:25;;;;;;;20.97;13.03;;;;;;;;;;2612492;46;20390;-76
2023/10/31 06:20:51;;;;;;;19.30;11.23;;;;;;;;;;2609655;54;20392;-81
2023/10/31 06:23:17;;;;;;;17.97;11.10;;;;;;;;;;2611432;39;20725;-79
2023/10/31 06:25:43;;;;;;;18.80;13.27;;;;;;;;;;2610065;47;20411;-77
2023/10/31 06:28:09;;;;;;;20.70;13.60;;;;;;;;;;2611044;54;21291;-76
2023/10/31 06:30:35;;;;;;;16.33;9.93;;;;;;;;;;2607898;54;20427;-77
2023/10/31 06:33:02;;;;;;;18.17;13.50;;;;;;;;;;2610880;47;20415;-75
2023/10/31 06:35:29;;;;;;;20.53;13.47;;;;;;;;;;2612295;39;20828;-76
2023/10/31 06:37:56;;;;;;;22.83;14.93;;;;;;;;;;2611870;54;20408;-76
2023/10/31 06:40:23;;;;;;;24.07;14.37;;;;;;;;;;2612355;54;20491;-76
2023/10/31 06:42:49;;;;;;;20.13;12.97;;;;;;;;;;2611912;54;20485;-78
2023/10/31 06:45:15;;;;;;;23.80;14.97;;;;;;;;;;2613098;39;20828;-76
2023/10/31 06:47:41;;;;;;;27.50;13.60;;;;;;;;;;2611971;54;20516;-76
2023/10/31 06:50:08;;;;;;;21.90;14.20;;;;;;;;;;2611780;47;20429;-76
2023/10/31 06:52:34;;;;;;;20.63;11.97;;;;;;;;;;2610575;54;20420;-75
2023/10/31 06:55:00;;;;;;;17.43;11.43;;;;;;;;;;2611811;54;20439;-76
2023/10/31 06:57:26;;;;;;;18.50;12.63;;;;;;;;;;2612038;47;20482;-75
2023/10/31 06:59:52;;;;;;;17.20;11.50;;;;;;;;;;2611823;54;20997;-75
2023/10/31 07:02:19;;;;;;;21.37;10.43;;;;;;;;;;2612972;54;20391;-77
2023/10/31 07:04:45;;;;;;;19.93;13.03;;;;;;;;;;2612687;54;20433;-76
2023/10/31 07:07:11;;;;;;;15.77;10.63;;;;;;;;;;2612728;54;20443;-76
2023/10/31 07:09:37;;;;;;;18.63;11.83;;;;;;;;;;2610081;47;20527;-76
2023/10/31 07:12:03;;;;;;;16.47;11.90;;;;;;;;;;2612704;54;20419;-75
2023/10/31 07:14:29;;;;;;;16.40;11.27;;;;;;;;;;2614081;31;20924;-76
2023/10/31 07:16:56;;;;;;;16.60;11.40;;;;;;;;;;2613679;54;20398;-78
2023/10/31 07:19:22;;;;;;;17.80;12.13;;;;;;;;;;2613040;47;20430;-74
2023/10/31 07:21:48;;;;;;;19.00;12.37;;;;;;;;;;2611795;47;20431;-75
2023/10/31 07:24:14;;;;;;;19.67;12.20;;;;;;;;;;2611166;54;20574;-75
2023/10/31 07:26:40;;;;;;;16.10;11.33;;;;;;;;;;2613023;47;20520;-76
2023/10/31 07:29:07;;;;;;;17.83;12.90;;;;;;;;;;2613014;39;20840;-76
2023/10/31 07:31:33;;;;;;;20.10;11.07;;;;;;;;;;2612925;54;20425;-77
2023/10/31 07:33:59;;;;;;;15.63;9.87;;;;;;;;;;2613390;54;21673;-76
2023/10/31 07:36:25;;;;;;;16.87;9.20;;;;;;;;;;2613284;51;20423;-76
2023/10/31 07:38:51;;;;;;;15.20;10.20;;;;;;;;;;2613248;39;20795;-76
2023/10/31 07:41:17;;;;;;;14.83;9.17;;;;;;;;;;2612937;54;20419;-76
2023/10/31 07:43:43;;;;;;;13.87;9.57;;;;;;;;;;2612275;47;20535;-76
2023/10/31 07:46:12;;;;;;;12.53;8.27;;;;;;;;;;2612369;54;20462;-77
2023/10/31 07:48:38;;;;;;;16.83;10.63;;;;;;;;;;2613888;49;20458;-77
2023/10/31 07:51:05;;;;;;;18.73;10.30;;;;;;;;;;2614754;54;21073;-78
2023/10/31 07:53:31;;;;;;;14.10;10.83;;;;;;;;;;2614028;39;20556;-78
2023/10/31 07:55:58;;;;;;;14.93;11.07;;;;;;;;;;2613908;54;20539;-79
2023/10/31 07:58:24;;;;;;;18.70;11.70;;;;;;;;;;2613158;54;20499;-78
2023/10/31 08:00:50;;;;;;;15.47;9.60;;;;;;;;;;2612387;46;20442;-77
2023/10/31 08:03:16;;;;;;;13.47;9.10;;;;;;;;;;2613253;54;20419;-78
2023/10/31 08:05:42;;;;;;;17.50;12.83;;;;;;;;;;2614576;54;21016;-78
2023/10/31 08:08:08;;;;;;;20.93;12.83;;;;;;;;;;2615265;54;20998;-77
2023/10/31 08:10:41;;;;;;;21.63;14.27;;;;;;;;;;2615017;54;21371;-77
2023/10/31 08:13:07;;;;;;;15.90;13.13;;;;;;;;;;2614870;54;20410;-77
2023/10/31 08:15:33;;;;;;;20.50;13.73;;;;;;;;;;2614722;47;20424;-77
2023/10/31 08:17:59;;;;;;;17.33;11.37;;;;;;;;;;2615356;54;20896;-79
2023/10/31 08:20:33;;;;;;;15.40;11.80;;;;;;;;;;2615019;46;20499;-77
2023/10/31 08:22:59;;;;;;;20.33;13.47;;;;;;;;;;2615755;39;20470;-78
2023/10/31 08:25:26;;;;;;;15.90;11.00;;;;;;;;;;2616196;39;21134;-77
2023/10/31 08:27:53;;;;;;;13.83;9.67;;;;;;;;;;2615701;54;20415;-76
2023/10/31 08:30:30;;;;;;;15.27;11.30;;;;;;;;;;2615723;54;20423;-76
2023/10/31 08:32:57;;;;;;;14.70;11.23;;;;;;;;;;2616504;39;20846;-77
2023/10/31 08:35:25;;;;;;;12.70;9.97;;;;;;;;;;2615906;47;20423;-77
2023/10/31 08:37:52;;;;;;;15.43;10.60;;;;;;;;;;2614110;46;20465;-75
2023/10/31 08:40:19;;;;;;;14.93;10.70;;;;;;;;;;2613349;39;20883;-74
2023/10/31 08:42:45;;;;;;;14.20;9.30;;;;;;;;;;2612839;54;20462;-75
2023/10/31 08:45:11;;;;;;;14.80;9.87;;;;;;;;;;2612535;54;20420;-77
2023/10/31 08:47:38;;;;;;;11.77;10.10;;;;;;;;;;2613065;54;20467;-76
2023/10/31 08:50:04;;;;;;;12.10;10.60;;;;;;;;;;2611921;54;20411;-75
2023/10/31 08:52:30;;;;;;;12.90;8.33;;;;;;;;;;2612339;54;20400;-76
2023/10/31 08:54:56;;;;;;;12.77;10.10;;;;;;;;;;2613073;46;20442;-75
2023/10/31 08:57:22;;;;;;;12.20;7.87;;;;;;;;;;2612700;47;20426;-77
2023/10/31 08:59:49;;;;;;;10.57;9.47;;;;;;;;;;2613713;46;20427;-78
2023/10/31 09:02:15;;;;;;;13.27;9.10;;;;;;;;;;2612806;39;20818;-77
2023/10/31 09:04:41;;;;;;;13.37;10.47;;;;;;;;;;2612253;54;20415;-78
2023/10/31 09:07:07;;;;;;;17.50;10.40;;;;;;;;;;2613520;54;20430;-79
2023/10/31 09:09:33;;;;;;;12.97;10.30;;;;;;;;;;2613264;54;20976;-78
2023/10/31 09:11:59;;;;;;;12.27;10.90;;;;;;;;;;2612593;50;20420;-76
2023/10/31 09:14:25;;;;;;;9.77;8.77;;;;;;;;;;2612192;39;20962;-78
2023/10/31 09:16:51;;;;;;;10.53;8.90;;;;;;;;;;2612380;46;20427;-77
2023/10/31 09:19:17;;;;;;;12.50;10.60;;;;;;;;;;2613392;54;20411;-77
2023/10/31 09:21:43;;;;;;;14.10;12.00;;;;;;;;;;2612378;54;20444;-78
2023/10/31 09:24:10;;;;;;;13.20;10.13;;;;;;;;;;2612676;54;21266;-76
2023/10/31 09:26:36;;;;;;;10.50;9.37;;;;;;;;;;2612325;54;20527;-77
2023/10/31 09:29:02;;;;;;;12.03;9.20;;;;;;;;;;2613093;54;20760;-78
2023/10/31 09:31:28;;;;;;;10.90;9.40;;;;;;;;;;2612757;54;20450;-76
2023/10/31 09:33:54;;;;;;;9.90;8.53;;;;;;;;;;2613239;54;20988;-76
2023/10/31 09:36:20;;;;;;;15.90;9.90;;;;;;;;;;2611785;47;20411;-77
2023/10/31 09:38:46;;;;;;;10.17;9.03;;;;;;;;;;2612741;54;20427;-77
2023/10/31 09:41:15;;;;;;;11.80;9.37;;;;;;;;;;2611995;47;20427;-77
2023/10/31 09:43:42;;;;;;;11.53;9.43;;;;;;;;;;2612419;54;20448;-77
2023/10/31 09:46:09;;;;;;;10.93;7.37;;;;;;;;;;2612101;54;20404;-77
2023/10/31 09:48:36;;;;;;;10.93;8.30;;;;;;;;;;2613071;39;21203;-76
2023/10/31 09:51:03;;;;;;;10.33;9.20;;;;;;;;;;2612074;54;20433;-75
2023/10/31 09:53:30;;;;;;;8.83;7.50;;;;;;;;;;2611530;53;20933;-76
2023/10/31 09:55:57;;;;;;;10.27;8.17;;;;;;;;;;2612121;54;20515;-76
2023/10/31 09:58:23;;;;;;;10.63;8.40;;;;;;;;;;2611181;47;20408;-76
2023/10/31 10:00:49;;;;;;;10.80;9.03;;;;;;;;;;2612125;54;20411;-76
2023/10/31 10:03:15;;;;;;;10.13;8.07;;;;;;;;;;2611024;47;20406;-76
2023/10/31 10:05:45;;;;;;;13.23;7.17;;;;;;;;;;2612103;54;20503;-76
2023/10/31 10:08:11;;;;;;;9.47;8.53;;;;;;;;;;2612795;54;20416;-76
2023/10/31 10:10:37;;;;;;;9.43;8.30;;;;;;;;;;2610466;54;20436;-77
2023/10/31 10:13:04;;;;;;;10.90;7.57;;;;;;;;;;2611283;54;20422;-77
2023/10/31 10:15:33;;;;;;;9.47;7.90;;;;;;;;;;2610583;54;20430;-74
2023/10/31 10:18:00;;;;;;;10.80;7.17;;;;;;;;;;2614675;54;20407;-77
2023/10/31 10:20:26;;;;;;;13.50;8.87;;;;;;;;;;2615635;54;20391;-76
2023/10/31 10:22:52;;;;;;;11.73;9.20;;;;;;;;;;2615719;54;20424;-76
2023/10/31 10:25:19;;;;;;;14.50;9.30;;;;;;;;;;2615966;47;20427;-76
2023/10/31 10:27:47;;;;;;;11.90;9.77;;;;;;;;;;2615745;54;20415;-77
2023/10/31 10:30:14;;;;;;;11.47;9.13;;;;;;;;;;2615554;39;20767;-78
2023/10/31 10:32:51;;;;;;;16.60;9.57;;;;;;;;;;2616121;39;20510;-77
2023/10/31 10:35:19;;;;;;;11.27;9.37;;;;;;;;;;2616589;39;20496;-77
2023/10/31 10:37:47;;;;;;;10.70;8.07;;;;;;;;;;2616811;54;20423;-76
2023/10/31 10:40:14;;;;;;;12.07;9.53;;;;;;;;;;2616712;49;20408;-76
2023/10/31 10:42:43;;;;;;;11.63;9.80;;;;;;;;;;2617140;54;20443;-77
2023/10/31 10:45:11;;;;;;;10.70;9.57;;;;;;;;;;2617235;54;20420;-76
2023/10/31 10:47:50;;;;;;;15.33;9.20;;;;;;;;;;2617055;54;20547;-77
2023/10/31 10:50:44;;;;;;;9.97;8.57;;;;;;;;;;2616086;47;20403;-77
2023/10/31 10:53:31;;;;;;;12.03;7.70;;;;;;;;;;2615159;47;20435;-76
2023/10/31 10:56:19;;;;;;;9.50;7.00;;;;;;;;;;2615568;46;20473;-78
2023/10/31 10:58:52;;;;;;;11.80;9.57;;;;;;;;;;2611762;54;20396;-78
2023/10/31 11:01:20;;;;;;;11.43;8.37;;;;;;;;;;2611722;54;20417;-78
2023/10/31 11:03:46;;;;;;;10.67;8.10;;;;;;;;;;2611790;54;20462;-77
2023/10/31 11:06:13;;;;;;;15.07;8.63;;;;;;;;;;2612232;46;20432;-77
2023/10/31 11:08:40;;;;;;;12.90;8.60;;;;;;;;;;2612079;54;20419;-78
2023/10/31 11:11:07;;;;;;;13.83;8.93;;;;;;;;;;2611193;54;20435;-78
2023/10/31 11:13:33;;;;;;;12.73;9.90;;;;;;;;;;2612393;39;20874;-78
2023/10/31 11:16:13;;;;;;;11.30;8.07;;;;;;;;;;2609269;54;20520;-77
2023/10/31 11:18:41;;;;;;;12.80;5.70;;;;;;;;;;2612032;47;20430;-78
2023/10/31 11:21:07;;;;;;;9.00;7.13;;;;;;;;;;2612597;39;20832;-78
2023/10/31 11:23:33;;;;;;;12.77;7.93;;;;;;;;;;2612429;54;20412;-78
2023/10/31 11:25:59;;;;;;;7.30;5.90;;;;;;;;;;2612403;54;21067;-78
2023/10/31 11:28:25;;;;;;;10.07;7.30;;;;;;;;;;2612207;54;20945;-77
2023/10/31 11:30:56;;;;;;;10.77;7.13;;;;;;;;;;2612861;54;20418;-77
2023/10/31 11:33:24;;;;;;;10.53;7.13;;;;;;;;;;2610925;54;20404;-78
2023/10/31 11:36:10;;;;;;;8.77;6.07;;;;;;;;;;2611893;54;20441;-79
2023/10/31 11:38:37;;;;;;;10.90;6.80;;;;;;;;;;2613099;54;20431;-77
2023/10/31 11:41:05;;;;;;;9.13;6.60;;;;;;;;;;2613104;54;21163;-78
2023/10/31 11:43:57;;;;;;;11.10;6.30;;;;;;;;;;2612549;54;20478;-77
2023/10/31 11:46:28;;;;;;;8.43;6.70;;;;;;;;;;2613045;54;20526;-77
2023/10/31 11:48:59;;;;;;;8.10;6.40;;;;;;;;;;2612897;54;20416;-77
2023/10/31 11:51:26;;;;;;;12.00;6.20;;;;;;;;;;2612265;54;20466;-77
2023/10/31 11:53:52;;;;;;;8.10;6.20;;;;;;;;;;2611545;39;20985;-77
2023/10/31 11:56:19;;;;;;;10.80;6.00;;;;;;;;;;2612623;54;20411;-77
2023/10/31 11:58:45;;;;;;;8.70;6.37;;;;;;;;;;2611617;54;20450;-78
2023/10/31 12:01:11;;;;;;;12.43;7.00;;;;;;;;;;2611000;54;20412;-78
2023/10/31 12:03:42;;;;;;;9.97;6.23;;;;;;;;;;2611242;50;21396;-77
2023/10/31 12:06:09;;;;;;;6.10;5.20;;;;;;;;;;2612082;47;20422;-78
2023/10/31 12:08:37;;;;;;;6.63;4.90;;;;;;;;;;2614929;54;20403;-77
2023/10/31 12:11:17;;;;;;;6.20;4.73;;;;;;;;;;2616096;54;20430;-76
2023/10/31 12:13:54;;;;;;;8.80;4.97;;;;;;;;;;2616691;54;21200;-77
2023/10/31 12:16:23;;;;;;;12.30;4.73;;;;;;;;;;2616011;54;20506;-78
2023/10/31 12:19:01;;;;;;;7.13;5.10;;;;;;;;;;2616749;54;20563;-77
2023/10/31 12:21:41;;;;;;;4.53;3.50;;;;;;;;;;2616468;54;20454;-77
2023/10/31 12:24:26;;;;;;;9.80;5.90;;;;;;;;;;2615783;47;20906;-77
2023/10/31 12:27:04;;;;;;;4.37;3.93;;;;;;;;;;2615911;46;20905;-76
2023/10/31 12:29:44;;;;;;;6.70;4.60;;;;;;;;;;2616369;47;20419;-77
2023/10/31 12:32:13;;;;;;;4.10;3.70;;;;;;;;;;2611311;54;20437;-77
2023/10/31 12:34:44;;;;;;;8.03;4.53;;;;;;;;;;2612329;54;20442;-77
2023/10/31 12:37:10;;;;;;;5.23;3.90;;;;;;;;;;2612983;54;20420;-77
2023/10/31 12:39:36;;;;;;;3.50;3.20;;;;;;;;;;2612238;54;20434;-77
2023/10/31 12:42:03;;;;;;;4.50;3.70;;;;;;;;;;2613269;54;20438;-76
2023/10/31 12:44:29;;;;;;;4.33;3.93;;;;;;;;;;2612644;54;20439;-77
2023/10/31 12:46:55;;;;;;;6.17;3.30;;;;;;;;;;2612209;46;20420;-76
2023/10/31 12:49:21;;;;;;;6.20;3.40;;;;;;;;;;2612795;54;20407;-75
2023/10/31 12:51:58;;;;;;;3.40;2.60;;;;;;;;;;2613030;54;20424;-76
2023/10/31 12:54:34;;;;;;;6.80;3.90;;;;;;;;;;2612700;54;20977;-75
2023/10/31 12:57:01;;;;;;;7.13;4.00;;;;;;;;;;2612774;54;21111;-76
2023/10/31 12:59:27;;;;;;;7.60;4.10;;;;;;;;;;2612491;54;20415;-75
2023/10/31 13:01:54;;;;;;;5.37;4.20;;;;;;;;;;2611254;54;20495;-78
2023/10/31 13:04:28;;;;;;;4.10;3.70;;;;;;;;;;2611001;39;20839;-77
2023/10/31 13:06:57;;;;;;;5.27;4.00;;;;;;;;;;2610243;46;20534;-75
2023/10/31 13:09:23;;;;;;;7.60;4.40;;;;;;;;;;2612355;54;20984;-77
2023/10/31 13:11:50;;;;;;;5.40;4.47;;;;;;;;;;2611978;54;20432;-75
2023/10/31 13:14:16;;;;;;;4.87;4.37;;;;;;;;;;2611774;54;20390;-77
2023/10/31 13:16:42;;;;;;;5.13;4.73;;;;;;;;;;2611127;54;20395;-77
2023/10/31 13:19:08;;;;;;;5.90;3.70;;;;;;;;;;2613371;54;20440;-75
2023/10/31 13:21:34;;;;;;;8.30;4.80;;;;;;;;;;2612097;46;20972;-76
2023/10/31 13:24:00;;;;;;;4.53;3.80;;;;;;;;;;2612079;39;20513;-77
2023/10/31 13:26:26;;;;;;;6.40;5.10;;;;;;;;;;2611883;39;20727;-78
2023/10/31 13:28:52;;;;;;;9.20;4.40;;;;;;;;;;2611667;54;20411;-77
2023/10/31 13:31:18;;;;;;;4.00;3.50;;;;;;;;;;2611736;54;20426;-75
2023/10/31 13:33:45;;;;;;;4.33;4.00;;;;;;;;;;2613171;54;20428;-75
2023/10/31 13:36:12;;;;;;;7.00;4.93;;;;;;;;;;2612109;54;20455;-76
2023/10/31 13:38:39;;;;;;;5.03;4.63;;;;;;;;;;2609425;39;20820;-75
2023/10/31 13:41:05;;;;;;;4.30;4.00;;;;;;;;;;2612356;54;20431;-76
2023/10/31 13:43:31;;;;;;;3.80;3.50;;;;;;;;;;2612586;54;20451;-78
2023/10/31 13:45:57;;;;;;;4.50;4.10;;;;;;;;;;2612076;54;20411;-75
2023/10/31 13:48:23;;;;;;;4.37;3.57;;;;;;;;;;2610761;47;20442;-75
2023/10/31 13:50:50;;;;;;;5.23;4.60;;;;;;;;;;2611506;54;20461;-74
2023/10/31 13:53:16;;;;;;;9.83;5.40;;;;;;;;;;2610786;54;20415;-76
2023/10/31 13:55:44;;;;;;;5.30;4.30;;;;;;;;;;2612125;54;20422;-76
2023/10/31 13:58:10;;;;;;;4.10;3.80;;;;;;;;;;2609632;50;20431;-76
2023/10/31 14:00:36;;;;;;;4.20;3.83;;;;;;;;;;2611422;54;20454;-76
2023/10/31 14:03:02;;;;;;;5.43;5.00;;;;;;;;;;2610392;47;20431;-76
2023/10/31 14:05:28;;;;;;;4.77;4.30;;;;;;;;;;2611890;47;20423;-76
2023/10/31 14:07:54;;;;;;;4.73;4.33;;;;;;;;;;2611274;54;21023;-76
2023/10/31 14:10:20;;;;;;;5.90;5.33;;;;;;;;;;2609395;54;20383;-75
2023/10/31 14:12:47;;;;;;;7.10;4.93;;;;;;;;;;2610464;54;20430;-76
2023/10/31 14:15:13;;;;;;;5.00;4.60;;;;;;;;;;2611012;54;20434;-76
2023/10/31 14:17:39;;;;;;;5.03;4.60;;;;;;;;;;2609889;54;20420;-76
2023/10/31 14:20:05;;;;;;;5.67;5.27;;;;;;;;;;2610843;54;20434;-75
2023/10/31 14:22:31;;;;;;;5.13;4.73;;;;;;;;;;2611243;54;21785;-75
2023/10/31 14:24:57;;;;;;;5.87;4.97;;;;;;;;;;2610697;47;20417;-75
2023/10/31 14:27:24;;;;;;;5.20;4.80;;;;;;;;;;2611195;54;20399;-76
2023/10/31 14:29:51;;;;;;;5.60;4.70;;;;;;;;;;2611376;54;20428;-75
2023/10/31 14:32:17;;;;;;;5.70;5.30;;;;;;;;;;2610557;54;20420;-75
2023/10/31 14:34:43;;;;;;;5.20;4.90;;;;;;;;;;2612550;47;20977;-75